createdAt,value
2017-10-20T00:01:36.057Z,99.90
2017-10-20T00:04:03.100Z,99.90
2017-10-20T00:06:30.150Z,99.90
2017-10-20T00:08:57.185Z,99.90
2017-10-20T00:11:24.383Z,99.90
2017-10-20T00:13:50.671Z,99.90
2017-10-20T00:16:17.772Z,99.90
2017-10-20T00:18:44.164Z,99.90
2017-10-20T00:21:10.489Z,99.90
2017-10-20T00:23:37.533Z,99.90
2017-10-20T00:26:04.590Z,99.90
2017-10-20T00:28:30.923Z,99.90
2017-10-20T00:30:57.278Z,99.90
2017-10-20T00:33:23.569Z,99.90
2017-10-20T00:35:50.612Z,99.90
2017-10-20T00:38:17.648Z,99.90
2017-10-20T00:40:43.959Z,99.90
2017-10-20T00:43:10.301Z,99.90
2017-10-20T00:45:36.620Z,99.90
2017-10-20T00:48:02.924Z,99.90
2017-10-20T00:50:29.209Z,99.90
2017-10-20T00:52:56.263Z,99.90
2017-10-20T00:55:23.269Z,99.90
2017-10-20T00:57:49.624Z,99.90
2017-10-20T01:00:15.985Z,99.90
2017-10-20T01:02:42.304Z,99.90
2017-10-20T01:05:09.356Z,99.90
2017-10-20T01:07:35.666Z,99.90
2017-10-20T01:10:02.846Z,99.90
2017-10-20T01:12:29.149Z,99.90
2017-10-20T01:14:56.208Z,99.90
2017-10-20T01:17:23.240Z,99.90
2017-10-20T01:19:50.320Z,99.90
2017-10-20T01:22:16.632Z,99.90
2017-10-20T01:24:43.853Z,99.90
2017-10-20T01:27:10.276Z,99.90
2017-10-20T01:29:36.820Z,99.90
2017-10-20T01:32:03.116Z,99.90
2017-10-20T01:34:29.443Z,99.90
2017-10-20T01:36:55.724Z,99.90
2017-10-20T01:39:22.736Z,99.90
2017-10-20T01:41:49.048Z,99.90
2017-10-20T01:44:15.312Z,99.90
2017-10-20T01:46:41.643Z,99.90
2017-10-20T01:49:07.940Z,99.90
2017-10-20T01:51:34.285Z,99.90
2017-10-20T01:54:00.620Z,99.90
2017-10-20T01:56:26.896Z,99.90
2017-10-20T01:58:54.128Z,99.90
2017-10-20T02:01:20.485Z,99.90
2017-10-20T02:03:46.844Z,99.90
2017-10-20T02:06:13.143Z,99.90
2017-10-20T02:08:40.160Z,99.90
2017-10-20T02:11:06.455Z,99.90
2017-10-20T02:13:32.764Z,99.90
2017-10-20T02:15:59.093Z,99.90
2017-10-20T02:18:25.397Z,99.90
2017-10-20T02:20:52.480Z,99.90
2017-10-20T02:23:18.753Z,99.90
2017-10-20T02:25:45.060Z,99.90
2017-10-20T02:28:11.377Z,99.90
2017-10-20T02:30:37.707Z,99.90
2017-10-20T02:33:04.064Z,99.90
2017-10-20T02:35:30.350Z,99.90
2017-10-20T02:37:56.661Z,99.90
2017-10-20T02:40:23.783Z,99.90
2017-10-20T02:42:50.118Z,99.90
2017-10-20T02:45:16.408Z,99.90
2017-10-20T02:47:42.734Z,99.90
2017-10-20T02:50:09.965Z,99.90
2017-10-20T02:52:36.276Z,99.90
2017-10-20T02:55:03.321Z,99.90
2017-10-20T02:57:30.368Z,99.90
2017-10-20T02:59:57.433Z,99.90
2017-10-20T03:02:24.600Z,99.90
2017-10-20T03:04:50.929Z,99.90
2017-10-20T03:07:17.199Z,99.90
2017-10-20T03:09:43.508Z,99.90
2017-10-20T03:12:09.790Z,99.90
2017-10-20T03:14:36.826Z,99.90
2017-10-20T03:17:03.945Z,99.90
2017-10-20T03:19:30.306Z,99.90
2017-10-20T03:21:57.510Z,99.90
2017-10-20T03:24:23.976Z,99.90
2017-10-20T03:26:50.986Z,99.90
2017-10-20T03:29:17.317Z,99.90
2017-10-20T03:31:43.652Z,99.90
2017-10-20T03:34:10.075Z,99.90
2017-10-20T03:36:36.403Z,99.90
2017-10-20T03:39:02.722Z,99.90
2017-10-20T03:41:29.160Z,99.90
2017-10-20T03:43:55.809Z,99.90
2017-10-20T03:46:22.092Z,99.90
2017-10-20T03:48:49.120Z,99.90
2017-10-20T03:51:15.424Z,99.90
2017-10-20T03:53:41.727Z,99.90
2017-10-20T03:56:08.068Z,99.90
2017-10-20T03:58:34.369Z,99.90
2017-10-20T04:01:00.691Z,99.90
2017-10-20T04:03:27.712Z,99.90
2017-10-20T04:05:54.044Z,99.90
2017-10-20T04:08:20.344Z,99.90
2017-10-20T04:10:46.629Z,99.90
2017-10-20T04:13:13.700Z,99.90
2017-10-20T04:15:40.056Z,99.90
2017-10-20T04:18:06.328Z,99.90
2017-10-20T04:20:33.380Z,99.90
2017-10-20T04:23:00.419Z,99.90
2017-10-20T04:25:27.488Z,99.90
2017-10-20T04:27:54.509Z,99.90
2017-10-20T04:30:20.815Z,99.90
2017-10-20T04:32:47.124Z,99.90
2017-10-20T04:35:13.404Z,99.90
2017-10-20T04:37:39.859Z,99.90
2017-10-20T04:40:06.908Z,99.90
2017-10-20T04:42:33.948Z,99.90
2017-10-20T04:45:00.964Z,99.90
2017-10-20T04:47:27.257Z,99.90
2017-10-20T04:49:53.548Z,99.90
2017-10-20T04:52:20.655Z,99.90
2017-10-20T04:54:46.933Z,99.90
2017-10-20T04:57:14.021Z,99.90
2017-10-20T04:59:40.322Z,99.90
2017-10-20T05:02:06.616Z,99.90
2017-10-20T05:04:32.937Z,99.90
2017-10-20T05:06:59.216Z,99.90
2017-10-20T05:09:25.522Z,99.90
2017-10-20T05:11:52.558Z,99.90
2017-10-20T05:14:19.763Z,99.90
2017-10-20T05:16:46.074Z,99.90
2017-10-20T05:19:12.436Z,99.90
2017-10-20T05:21:38.753Z,99.90
2017-10-20T05:24:05.032Z,99.90
2017-10-20T05:26:32.137Z,99.90
2017-10-20T05:28:58.471Z,99.90
2017-10-20T05:31:24.767Z,99.90
2017-10-20T05:33:51.182Z,99.90
2017-10-20T05:36:18.236Z,99.90
2017-10-20T05:38:45.276Z,99.90
2017-10-20T05:41:12.681Z,99.90
2017-10-20T05:43:38.977Z,99.90
2017-10-20T05:46:05.250Z,99.90
2017-10-20T05:48:31.554Z,99.90
2017-10-20T05:50:58.055Z,99.90
2017-10-20T05:53:25.076Z,99.90
2017-10-20T05:55:51.416Z,99.90
2017-10-20T05:58:18.444Z,99.90
2017-10-20T06:00:44.760Z,99.90
2017-10-20T06:03:11.052Z,99.90
2017-10-20T06:05:38.123Z,99.90
2017-10-20T06:08:04.428Z,99.90
2017-10-20T06:10:31.540Z,99.90
2017-10-20T06:12:57.888Z,99.90
2017-10-20T06:15:24.934Z,99.90
2017-10-20T06:17:51.279Z,99.90
2017-10-20T06:20:18.320Z,99.90
2017-10-20T06:22:45.383Z,99.90
2017-10-20T06:25:11.727Z,99.90
2017-10-20T06:27:38.041Z,99.90
2017-10-20T06:30:04.357Z,99.90
2017-10-20T06:32:31.424Z,99.90
2017-10-20T06:34:57.731Z,99.90
2017-10-20T06:37:24.083Z,99.90
2017-10-20T06:39:50.388Z,99.90
2017-10-20T06:42:17.415Z,99.90
2017-10-20T06:44:43.767Z,99.90
2017-10-20T06:47:10.821Z,99.90
2017-10-20T06:49:37.935Z,99.90
2017-10-20T06:52:04.397Z,99.90
2017-10-20T06:54:31.589Z,99.90
2017-10-20T06:56:57.916Z,99.90
2017-10-20T06:59:24.224Z,99.90
2017-10-20T07:01:50.619Z,99.90
2017-10-20T07:04:17.100Z,99.90
2017-10-20T07:06:43.446Z,99.90
2017-10-20T07:09:09.728Z,99.90
2017-10-20T07:11:36.804Z,99.90
2017-10-20T07:14:03.095Z,99.90
2017-10-20T07:16:29.394Z,99.90
2017-10-20T07:18:57.717Z,99.90
2017-10-20T07:21:24.777Z,99.90
2017-10-20T07:23:51.911Z,99.90
2017-10-20T07:26:19.706Z,99.90
2017-10-20T07:28:46.032Z,99.90
2017-10-20T07:31:12.327Z,99.90
2017-10-20T07:33:38.628Z,99.90
2017-10-20T07:36:04.933Z,99.90
2017-10-20T07:38:31.228Z,99.90
2017-10-20T07:40:58.312Z,99.90
2017-10-20T07:43:24.697Z,99.90
2017-10-20T07:45:50.972Z,99.90
2017-10-20T07:48:17.309Z,99.90
2017-10-20T07:50:43.616Z,99.90
2017-10-20T07:53:10.699Z,99.90
2017-10-20T07:55:37.010Z,99.90
2017-10-20T07:58:03.309Z,99.90
2017-10-20T08:00:30.376Z,99.90
2017-10-20T08:02:56.709Z,99.90
2017-10-20T08:05:22.990Z,99.90
2017-10-20T08:07:49.324Z,99.90
2017-10-20T08:10:15.600Z,99.90
2017-10-20T08:12:42.015Z,99.90
2017-10-20T08:15:09.078Z,99.90
2017-10-20T08:17:35.350Z,99.90
2017-10-20T08:20:01.901Z,99.90
2017-10-20T08:22:28.216Z,99.90
2017-10-20T08:24:54.825Z,99.90
2017-10-20T08:27:21.117Z,99.90
2017-10-20T08:29:48.507Z,99.90
2017-10-20T08:32:14.784Z,99.90
2017-10-20T08:34:42.557Z,99.90
2017-10-20T08:37:08.884Z,99.90
2017-10-20T08:39:35.987Z,99.90
2017-10-20T08:42:02.318Z,99.90
2017-10-20T08:44:28.786Z,99.90
2017-10-20T08:46:55.083Z,99.90
2017-10-20T08:49:21.445Z,99.90
2017-10-20T08:51:47.756Z,99.90
2017-10-20T08:54:14.077Z,99.90
2017-10-20T08:56:40.418Z,99.90
2017-10-20T11:55:19.311Z,98.20
2017-10-20T12:00:37.157Z,97.30
2017-10-20T12:03:03.472Z,97.00
2017-10-20T12:05:30.534Z,97.00
2017-10-20T12:07:56.840Z,97.00
2017-10-20T12:10:23.971Z,97.30
2017-10-20T12:12:50.344Z,97.30
2017-10-20T12:15:16.660Z,97.00
2017-10-20T12:17:43.728Z,97.00
2017-10-20T12:20:10.269Z,97.00
2017-10-20T12:22:36.594Z,95.70
2017-10-20T12:25:03.148Z,96.10
2017-10-20T12:27:29.471Z,96.10
2017-10-20T12:29:55.826Z,97.50
2017-10-20T12:32:22.120Z,97.70
2017-10-20T12:34:48.484Z,95.30
2017-10-20T12:37:14.802Z,96.10
2017-10-20T12:39:41.185Z,96.40
2017-10-20T12:42:08.324Z,97.20
2017-10-20T12:44:35.109Z,97.30
2017-10-20T12:47:01.413Z,96.90
2017-10-20T12:49:27.858Z,96.90
2017-10-20T12:51:54.315Z,95.70
2017-10-20T12:54:20.708Z,94.80
2017-10-20T12:56:47.907Z,94.40
2017-10-20T12:59:14.521Z,94.40
2017-10-20T13:01:41.068Z,94.10
2017-10-20T13:04:08.291Z,93.60
2017-10-20T13:06:35.259Z,94.50
2017-10-20T13:09:01.551Z,94.60
2017-10-20T13:11:28.612Z,94.00
2017-10-20T13:13:54.940Z,94.00
2017-10-20T13:16:22.020Z,94.00
2017-10-20T13:18:48.442Z,94.00
2017-10-20T13:21:15.703Z,93.30
2017-10-20T13:23:42.112Z,91.60
2017-10-20T13:26:09.482Z,90.80
2017-10-20T13:28:35.836Z,90.80
2017-10-20T13:31:02.342Z,91.30
2017-10-20T13:33:28.620Z,91.60
2017-10-20T13:35:54.940Z,91.90
2017-10-20T13:38:21.223Z,91.80
2017-10-20T13:40:47.565Z,92.00
2017-10-20T13:43:13.941Z,92.50
2017-10-20T13:45:40.381Z,92.50
2017-10-20T13:48:06.685Z,92.30
2017-10-20T13:50:33.031Z,92.30
2017-10-20T13:52:59.349Z,92.10
2017-10-20T13:55:25.669Z,92.20
2017-10-20T13:57:52.757Z,92.00
2017-10-20T14:00:19.805Z,91.20
2017-10-20T14:02:46.178Z,91.20
2017-10-20T14:05:12.572Z,91.20
2017-10-20T14:07:40.276Z,91.30
2017-10-20T14:10:06.592Z,91.20
2017-10-20T14:12:33.047Z,91.90
2017-10-20T14:14:59.389Z,91.60
2017-10-20T14:17:25.723Z,92.50
2017-10-20T14:19:52.043Z,92.30
2017-10-20T14:22:19.090Z,92.60
2017-10-20T14:24:45.481Z,92.50
2017-10-20T14:27:13.370Z,93.00
2017-10-20T14:29:39.768Z,93.00
2017-10-20T14:32:06.845Z,92.80
2017-10-20T14:34:33.184Z,92.80
2017-10-20T14:36:59.477Z,92.80
2017-10-20T14:39:26.605Z,93.20
2017-10-20T14:41:52.953Z,92.80
2017-10-20T14:44:19.336Z,93.00
2017-10-20T14:46:45.653Z,93.40
2017-10-20T14:49:11.973Z,93.10
2017-10-20T14:51:38.355Z,93.40
2017-10-20T14:54:04.681Z,93.10
2017-10-20T14:56:31.000Z,93.10
2017-10-20T14:58:57.349Z,92.70
2017-10-20T15:01:23.684Z,93.10
2017-10-20T15:03:50.052Z,93.20
2017-10-20T15:06:17.306Z,92.20
2017-10-20T15:08:43.652Z,92.20
2017-10-20T15:11:11.136Z,92.50
2017-10-20T15:13:37.596Z,92.90
2017-10-20T15:16:03.913Z,93.40
2017-10-20T15:18:30.278Z,94.00
2017-10-20T15:20:57.368Z,93.10
2017-10-20T15:23:23.788Z,93.10
2017-10-20T15:25:50.101Z,93.10
2017-10-20T15:28:16.408Z,93.10
2017-10-20T15:30:43.605Z,93.00
2017-10-20T15:33:10.096Z,93.10
2017-10-20T15:35:37.170Z,93.70
2017-10-20T15:38:03.515Z,93.70
2017-10-20T15:40:30.008Z,94.00
2017-10-20T15:42:57.081Z,93.40
2017-10-20T15:45:23.413Z,93.40
2017-10-20T15:47:49.745Z,93.50
2017-10-20T15:50:16.203Z,94.00
2017-10-20T15:52:42.609Z,94.50
2017-10-20T15:55:08.968Z,95.60
2017-10-20T15:57:35.301Z,95.80
2017-10-20T16:00:01.608Z,96.00
2017-10-20T16:02:27.947Z,96.70
2017-10-20T16:04:54.329Z,96.50
2017-10-20T16:07:20.624Z,96.90
2017-10-20T16:09:46.934Z,96.50
2017-10-20T16:12:13.230Z,97.20
2017-10-20T16:14:40.375Z,98.10
2017-10-20T16:17:07.402Z,98.90
2017-10-20T16:19:33.716Z,98.90
2017-10-20T16:22:00.084Z,99.90
2017-10-20T16:24:26.404Z,99.90
2017-10-20T16:26:52.943Z,99.90
2017-10-20T16:29:20.958Z,99.90
2017-10-20T16:31:47.284Z,99.90
2017-10-20T16:34:13.603Z,99.90
2017-10-20T16:36:39.888Z,99.90
2017-10-20T16:39:06.245Z,99.90
2017-10-20T16:41:33.326Z,99.90
2017-10-20T16:43:59.970Z,99.90
2017-10-20T16:46:26.284Z,99.90
2017-10-20T16:48:52.612Z,99.90
2017-10-20T16:51:18.926Z,99.90
2017-10-20T16:53:45.996Z,99.90
2017-10-20T16:56:12.303Z,99.90
2017-10-20T16:58:39.382Z,99.90
2017-10-20T17:01:05.767Z,99.90
2017-10-20T17:03:32.845Z,99.90
2017-10-20T17:05:59.200Z,99.90
2017-10-20T17:08:25.541Z,99.90
2017-10-20T17:10:51.878Z,99.90
2017-10-20T17:13:18.245Z,99.90
2017-10-20T17:15:45.284Z,99.90
2017-10-20T17:18:12.363Z,99.90
2017-10-20T17:20:38.699Z,99.90
2017-10-20T17:23:04.998Z,99.90
2017-10-20T17:25:32.236Z,99.90
2017-10-20T17:28:05.798Z,99.90
2017-10-20T17:30:32.142Z,99.90
2017-10-20T17:32:58.601Z,99.90
2017-10-20T17:35:24.976Z,99.90
2017-10-20T17:37:51.292Z,99.90
2017-10-20T17:40:18.389Z,99.90
2017-10-20T17:42:44.726Z,99.90
2017-10-20T17:45:11.045Z,99.90
2017-10-20T17:47:37.428Z,99.90
2017-10-20T17:50:03.877Z,99.90
2017-10-20T17:52:30.272Z,99.90
2017-10-20T17:54:56.591Z,99.90
2017-10-20T17:57:23.221Z,99.90
2017-10-20T17:59:49.626Z,99.90
2017-10-20T18:02:15.983Z,99.90
2017-10-20T18:04:42.293Z,99.90
2017-10-20T18:07:08.600Z,99.90
2017-10-20T18:09:34.912Z,99.90
2017-10-20T18:12:01.971Z,99.90
2017-10-20T18:14:28.374Z,99.90
2017-10-20T18:16:54.678Z,99.90
2017-10-20T18:19:21.052Z,99.90
2017-10-20T18:21:48.129Z,99.90
2017-10-20T18:24:14.461Z,99.90
2017-10-20T18:26:42.973Z,99.90
2017-10-20T18:29:09.314Z,99.90
2017-10-20T18:31:35.669Z,99.90
2017-10-20T18:34:02.755Z,99.90
2017-10-20T18:36:29.064Z,99.90
2017-10-20T18:38:55.428Z,99.90
2017-10-20T18:41:21.770Z,99.90
2017-10-20T18:43:48.294Z,99.90
2017-10-20T18:46:14.625Z,99.90
2017-10-20T18:48:41.012Z,99.90
2017-10-20T18:51:08.094Z,99.90
2017-10-20T18:53:34.533Z,99.90
2017-10-20T18:56:00.889Z,99.90
2017-10-20T18:58:27.396Z,99.90
2017-10-20T19:00:53.758Z,99.90
2017-10-20T19:03:20.133Z,99.90
2017-10-20T19:05:46.474Z,99.90
2017-10-20T19:08:12.778Z,99.90
2017-10-20T19:10:39.136Z,99.90
2017-10-20T19:13:05.467Z,99.90
2017-10-20T19:15:31.854Z,99.90
2017-10-20T19:17:58.230Z,99.90
2017-10-20T19:20:24.570Z,99.90
2017-10-20T19:22:50.914Z,99.90
2017-10-20T19:25:17.238Z,99.90
2017-10-20T19:27:43.588Z,99.90
2017-10-20T19:30:09.964Z,99.90
2017-10-20T19:32:36.320Z,99.90
2017-10-20T19:35:02.732Z,99.90
2017-10-20T19:37:29.105Z,99.90
2017-10-20T19:39:55.489Z,99.90
2017-10-20T19:42:22.600Z,99.90
2017-10-20T19:44:49.001Z,99.90
2017-10-20T19:47:15.345Z,99.90
2017-10-20T19:49:41.684Z,99.90
2017-10-20T19:52:08.019Z,99.90
2017-10-20T19:54:34.393Z,99.90
2017-10-20T19:57:01.616Z,99.90
2017-10-20T19:59:27.933Z,99.90
2017-10-20T20:01:54.256Z,99.90
2017-10-20T20:04:20.602Z,99.90
2017-10-20T20:06:46.989Z,99.90
2017-10-20T20:09:13.297Z,99.90
2017-10-20T20:11:40.794Z,99.90
2017-10-20T20:14:07.106Z,99.90
2017-10-20T20:16:33.442Z,99.90
2017-10-20T20:18:59.842Z,99.90
2017-10-20T20:21:26.223Z,99.90
2017-10-20T20:23:52.594Z,99.90
2017-10-20T20:26:19.091Z,99.90
2017-10-20T20:28:45.417Z,99.90
2017-10-20T20:31:11.743Z,99.90
2017-10-20T20:33:41.318Z,99.90
2017-10-20T20:36:15.040Z,99.90
2017-10-20T20:38:41.374Z,99.90
2017-10-20T20:41:07.698Z,99.90
2017-10-20T20:43:34.078Z,99.90
2017-10-20T20:46:01.644Z,99.90
2017-10-20T20:48:29.444Z,99.90
2017-10-20T20:50:55.817Z,99.90
2017-10-20T20:53:22.112Z,99.90
2017-10-20T20:55:48.513Z,99.90
2017-10-20T20:58:15.533Z,99.90
2017-10-20T21:00:41.855Z,99.90
2017-10-20T21:03:08.213Z,99.90
2017-10-20T21:05:34.516Z,99.90
2017-10-20T21:08:00.833Z,99.90
2017-10-20T21:10:27.151Z,99.90
2017-10-20T21:12:53.507Z,99.90
2017-10-20T21:15:19.958Z,99.90
2017-10-20T21:17:46.336Z,99.90
2017-10-20T21:20:12.688Z,99.90
2017-10-20T21:22:39.009Z,99.90
2017-10-20T21:25:05.356Z,99.90
2017-10-20T21:27:31.680Z,99.90
2017-10-20T21:29:58.082Z,99.90
2017-10-20T21:32:24.644Z,99.90
2017-10-20T21:34:51.053Z,99.90
2017-10-20T21:37:17.380Z,99.90
2017-10-20T21:39:43.791Z,99.90
2017-10-20T21:42:10.862Z,99.90
2017-10-20T21:44:37.199Z,99.90
2017-10-20T21:47:03.577Z,99.90
2017-10-20T21:49:29.908Z,99.90
2017-10-20T21:51:56.313Z,99.90
2017-10-20T21:54:22.620Z,99.90
2017-10-20T21:56:48.987Z,99.90
2017-10-20T21:59:15.288Z,99.90
2017-10-20T22:01:41.661Z,99.90
2017-10-20T22:04:08.033Z,99.90
2017-10-20T22:06:34.334Z,99.90
2017-10-20T22:09:00.661Z,99.90
2017-10-20T22:11:26.989Z,99.90
2017-10-20T22:13:53.308Z,99.90
2017-10-20T22:16:19.639Z,99.90
2017-10-20T22:18:45.989Z,99.90
2017-10-20T22:21:13.077Z,99.90
2017-10-20T22:23:39.419Z,99.90
2017-10-20T22:26:05.768Z,99.90
2017-10-20T22:28:32.092Z,99.90
2017-10-20T22:30:58.567Z,99.90
2017-10-20T22:33:25.653Z,99.90
2017-10-20T22:35:51.942Z,99.90
2017-10-20T22:38:19.019Z,99.90
2017-10-20T22:40:45.321Z,99.90
2017-10-20T22:43:12.396Z,99.90
2017-10-20T22:45:38.724Z,99.90
2017-10-20T22:48:05.068Z,99.90
2017-10-20T22:50:31.453Z,99.90
2017-10-20T22:52:57.732Z,99.90
2017-10-20T22:55:24.232Z,99.90
2017-10-20T22:57:51.345Z,99.90
2017-10-20T23:00:17.629Z,99.90
2017-10-20T23:02:43.909Z,99.90
2017-10-20T23:05:10.276Z,99.90
2017-10-20T23:07:37.335Z,99.90
2017-10-20T23:10:03.660Z,99.90
2017-10-20T23:12:30.093Z,99.90
2017-10-20T23:14:56.608Z,99.90
2017-10-20T23:17:23.659Z,99.90
2017-10-20T23:19:50.784Z,99.90
2017-10-20T23:22:17.057Z,99.90
2017-10-20T23:24:43.346Z,99.90
2017-10-20T23:27:09.748Z,99.90
2017-10-20T23:29:36.053Z,99.90
2017-10-20T23:32:02.391Z,99.90
2017-10-20T23:34:28.837Z,99.90
2017-10-20T23:36:55.171Z,99.90
2017-10-20T23:39:21.477Z,99.90
2017-10-20T23:41:48.062Z,99.90
2017-10-20T23:44:14.352Z,99.90
2017-10-20T23:46:40.663Z,99.90
2017-10-20T23:49:07.710Z,99.90
2017-10-20T23:51:34.793Z,99.90
2017-10-20T23:54:01.128Z,99.90
2017-10-20T23:56:27.494Z,99.90
2017-10-20T23:58:53.828Z,99.90
